createdAt,value
2022-12-02T00:03:28.748Z,44.40
2022-12-02T00:05:57.698Z,35.40
2022-12-02T00:08:31.293Z,41.03
2022-12-02T00:11:03.802Z,44.20
2022-12-02T00:13:42.302Z,35.95
2022-12-02T00:16:21.272Z,51.35
2022-12-02T00:19:22.422Z,38.05
2022-12-02T00:21:52.896Z,46.15
2022-12-02T00:24:22.902Z,38.00
2022-12-02T00:26:51.502Z,41.80
2022-12-02T00:29:20.139Z,46.67
2022-12-02T00:31:48.701Z,35.72
2022-12-02T00:34:17.465Z,41.60
2022-12-02T00:36:46.043Z,41.47
2022-12-02T00:39:14.631Z,43.42
2022-12-02T00:41:44.776Z,45.90
2022-12-02T00:44:30.579Z,34.47
2022-12-02T00:46:59.422Z,42.63
2022-12-02T00:49:47.232Z,36.13
2022-12-02T00:52:17.098Z,43.63
2022-12-02T00:54:45.665Z,42.78
2022-12-02T00:57:15.674Z,37.80
2022-12-02T00:59:44.241Z,42.60
2022-12-02T01:02:12.842Z,42.58
2022-12-02T01:04:41.509Z,40.97
2022-12-02T01:07:10.787Z,45.25
2022-12-02T01:09:39.530Z,42.97
2022-12-02T01:12:08.852Z,38.78
2022-12-02T01:15:30.305Z,38.38
2022-12-02T01:18:01.604Z,35.03
2022-12-02T01:20:30.187Z,43.47
2022-12-02T01:22:58.739Z,47.97
2022-12-02T01:25:27.338Z,39.10
2022-12-02T01:27:55.917Z,34.70
2022-12-02T01:30:24.729Z,37.55
2022-12-02T01:32:54.835Z,37.75
2022-12-02T01:35:23.672Z,43.92
2022-12-02T01:37:52.409Z,34.55
2022-12-02T01:40:22.395Z,40.75
2022-12-02T01:42:51.467Z,41.83
2022-12-02T01:45:20.619Z,38.45
2022-12-02T01:47:49.466Z,33.80
2022-12-02T01:50:20.347Z,43.30
2022-12-02T01:52:51.387Z,42.50
2022-12-02T01:55:27.202Z,38.80
2022-12-02T01:57:56.862Z,43.67
2022-12-02T02:00:27.213Z,39.17
2022-12-02T02:02:56.286Z,45.60
2022-12-02T02:05:31.549Z,48.45
2022-12-02T02:08:07.177Z,45.65
2022-12-02T02:10:38.719Z,36.45
2022-12-02T02:13:11.018Z,38.28
2022-12-02T02:15:41.527Z,37.15
2022-12-02T02:18:11.955Z,45.70
2022-12-02T02:20:43.564Z,49.38
2022-12-02T02:23:23.663Z,38.08
2022-12-02T02:25:57.821Z,41.80
2022-12-02T02:28:32.199Z,46.10
2022-12-02T02:31:01.677Z,40.75
2022-12-02T02:33:38.643Z,37.45
2022-12-02T02:36:08.620Z,44.70
2022-12-02T02:38:43.335Z,43.25
2022-12-02T02:41:13.011Z,44.78
2022-12-02T02:43:42.352Z,48.63
2022-12-02T02:46:12.292Z,42.85
2022-12-02T02:48:45.191Z,38.85
2022-12-02T02:51:15.470Z,35.50
2022-12-02T02:53:47.218Z,48.25
2022-12-02T02:56:17.320Z,37.20
2022-12-02T02:58:46.969Z,43.15
2022-12-02T03:01:21.102Z,34.92
2022-12-02T03:03:55.908Z,39.30
2022-12-02T03:06:28.021Z,43.65
2022-12-02T03:09:00.074Z,40.13
2022-12-02T03:11:30.394Z,44.03
2022-12-02T03:14:01.510Z,32.88
2022-12-02T03:16:31.002Z,39.88
2022-12-02T03:19:01.109Z,39.88
2022-12-02T03:21:30.561Z,44.42
2022-12-02T03:24:04.310Z,50.05
2022-12-02T03:26:35.197Z,40.85
2022-12-02T03:29:07.491Z,42.22
2022-12-02T03:31:37.129Z,38.22
2022-12-02T03:34:07.515Z,33.83
2022-12-02T03:36:37.206Z,39.53
2022-12-02T03:39:08.921Z,36.58
2022-12-02T03:41:38.613Z,35.40
2022-12-02T03:44:08.638Z,34.45
2022-12-02T03:46:37.890Z,40.72
2022-12-02T03:49:07.540Z,44.67
2022-12-02T03:51:37.327Z,28.48
2022-12-02T03:54:08.691Z,33.95
2022-12-02T03:56:40.676Z,30.50
2022-12-02T03:59:11.214Z,35.80
2022-12-02T04:01:40.647Z,30.17
2022-12-02T04:04:10.082Z,39.30
2022-12-02T04:06:39.401Z,37.75
2022-12-02T04:09:09.952Z,35.08
2022-12-02T04:11:38.996Z,32.53
2022-12-02T04:14:08.609Z,24.08
2022-12-02T04:16:38.058Z,35.50
2022-12-02T04:19:07.234Z,28.27
2022-12-02T04:21:36.471Z,34.38
2022-12-02T04:24:06.582Z,34.22
2022-12-02T04:26:42.003Z,29.38
2022-12-02T04:29:12.880Z,33.92
2022-12-02T04:31:42.064Z,37.60
2022-12-02T04:34:11.220Z,39.05
2022-12-02T04:36:43.473Z,39.05
2022-12-02T04:39:12.712Z,33.38
2022-12-02T04:41:43.310Z,31.30
2022-12-02T04:44:17.931Z,32.80
2022-12-02T04:46:47.575Z,31.23
2022-12-02T04:49:17.005Z,29.70
2022-12-02T04:51:46.397Z,30.15
2022-12-02T04:54:15.618Z,34.90
2022-12-02T04:56:46.158Z,32.65
2022-12-02T04:59:15.300Z,32.13
2022-12-02T05:01:44.687Z,30.67
2022-12-02T05:04:14.290Z,25.02
2022-12-02T05:06:43.394Z,27.85
2022-12-02T05:09:12.591Z,25.23
2022-12-02T05:11:41.590Z,22.92
2022-12-02T05:14:11.971Z,33.80
2022-12-02T05:16:41.224Z,27.42
2022-12-02T05:19:10.220Z,34.30
2022-12-02T05:21:39.224Z,29.83
2022-12-02T05:24:10.708Z,29.27
2022-12-02T05:26:39.767Z,33.67
2022-12-02T05:29:09.046Z,21.95
2022-12-02T05:31:39.516Z,27.20
2022-12-02T05:34:08.942Z,26.58
2022-12-02T05:36:38.351Z,27.70
2022-12-02T05:39:07.584Z,22.48
2022-12-02T05:41:37.080Z,22.02
2022-12-02T05:44:21.778Z,26.00
2022-12-02T05:46:53.099Z,26.10
2022-12-02T05:49:25.753Z,26.13
2022-12-02T05:51:59.339Z,29.13
2022-12-02T05:54:29.810Z,27.42
2022-12-02T05:57:03.458Z,21.42
2022-12-02T05:59:32.763Z,25.45
2022-12-02T06:02:03.465Z,25.85
2022-12-02T06:04:37.924Z,17.20
2022-12-02T06:07:15.125Z,21.23
2022-12-02T06:09:45.451Z,27.80
2022-12-02T06:12:20.060Z,21.80
2022-12-02T06:14:54.631Z,24.38
2022-12-02T06:17:25.071Z,25.85
2022-12-02T06:19:57.321Z,24.35
2022-12-02T06:22:33.331Z,21.30
2022-12-02T06:25:08.405Z,19.85
2022-12-02T06:27:37.369Z,19.25
2022-12-02T06:30:15.762Z,17.48
2022-12-02T06:33:07.333Z,23.88
2022-12-02T06:35:39.364Z,20.45
2022-12-02T06:38:30.962Z,21.58
2022-12-02T06:41:03.836Z,25.33
2022-12-02T06:43:33.959Z,32.90
2022-12-02T06:46:03.198Z,29.65
2022-12-02T06:48:37.419Z,28.77
2022-12-02T06:51:19.946Z,26.23
2022-12-02T06:53:50.038Z,20.30
2022-12-02T06:56:26.014Z,29.80
2022-12-02T06:59:03.055Z,23.85
2022-12-02T07:01:38.964Z,27.38
2022-12-02T07:04:36.257Z,29.00
2022-12-02T07:07:32.176Z,26.00
2022-12-02T07:10:05.606Z,25.95
2022-12-02T07:12:39.434Z,23.65
2022-12-02T07:15:28.134Z,22.45
2022-12-02T07:18:01.170Z,20.73
2022-12-02T07:20:39.122Z,29.27
2022-12-02T07:23:19.673Z,28.45
2022-12-02T07:25:52.277Z,28.23
2022-12-02T07:28:29.221Z,22.88
2022-12-02T07:31:03.316Z,21.05
2022-12-02T07:33:32.677Z,23.38
2022-12-02T07:36:03.165Z,21.73
2022-12-02T07:41:27.227Z,28.48
2022-12-02T07:43:58.560Z,19.40
2022-12-02T07:46:28.696Z,20.83
2022-12-02T07:48:57.732Z,20.08
2022-12-02T07:51:28.112Z,27.52
2022-12-02T07:53:57.196Z,18.85
2022-12-02T07:56:26.218Z,28.55
2022-12-02T08:01:45.600Z,18.67
2022-12-02T08:04:15.031Z,20.88
2022-12-02T08:06:45.344Z,19.77
2022-12-02T08:09:14.337Z,29.42
2022-12-02T08:11:43.346Z,18.48
2022-12-02T08:14:12.641Z,25.90
2022-12-02T08:16:42.822Z,19.48
2022-12-02T08:19:11.838Z,21.10
2022-12-02T08:21:41.240Z,23.38
2022-12-02T08:24:11.806Z,31.20
2022-12-02T08:26:41.111Z,20.40
2022-12-02T08:29:10.386Z,25.00
2022-12-02T08:31:39.354Z,21.40
2022-12-02T08:34:08.237Z,28.85
2022-12-02T08:36:37.461Z,26.98
2022-12-02T08:39:07.184Z,18.38
2022-12-02T08:41:39.542Z,19.45
2022-12-02T08:44:09.509Z,23.50
2022-12-02T08:46:41.600Z,24.52
2022-12-02T08:49:12.966Z,25.67
2022-12-02T08:51:42.161Z,22.13
2022-12-02T08:57:19.415Z,28.70
2022-12-02T08:59:49.692Z,20.73
2022-12-02T09:02:19.012Z,23.23
2022-12-02T09:04:47.957Z,24.30
2022-12-02T09:07:16.902Z,27.40
2022-12-02T09:09:46.871Z,30.20
2022-12-02T09:12:18.040Z,22.80
2022-12-02T09:14:47.537Z,25.17
2022-12-02T09:17:31.798Z,22.30
2022-12-02T09:20:04.505Z,18.55
2022-12-02T09:22:34.323Z,27.60
2022-12-02T09:25:04.436Z,24.17
2022-12-02T09:27:35.718Z,23.48
2022-12-02T09:30:32.960Z,24.08
2022-12-02T09:33:34.206Z,28.08
2022-12-02T09:37:01.449Z,24.58
2022-12-02T09:40:15.678Z,20.73
2022-12-02T09:42:47.488Z,21.45
2022-12-02T09:46:25.525Z,21.70
2022-12-02T09:48:59.528Z,24.13
2022-12-02T09:51:30.243Z,21.67
2022-12-02T09:54:00.388Z,29.02
2022-12-02T09:56:31.721Z,21.58
2022-12-02T09:59:12.281Z,20.65
2022-12-02T10:01:48.794Z,21.02
2022-12-02T10:04:28.288Z,25.25
2022-12-02T10:06:58.650Z,21.60
2022-12-02T10:09:32.853Z,17.75
2022-12-02T10:17:27.300Z,19.77
2022-12-02T10:35:14.060Z,30.08
2022-12-02T10:41:39.604Z,24.17
2022-12-02T10:44:18.415Z,25.00
2022-12-02T10:46:50.345Z,21.38
2022-12-02T10:49:36.476Z,25.67
2022-12-02T10:52:15.475Z,26.45
2022-12-02T10:54:51.969Z,29.35
2022-12-02T10:57:28.362Z,39.88
2022-12-02T11:00:01.011Z,25.58
2022-12-02T11:02:36.686Z,29.58
2022-12-02T11:05:18.286Z,29.38
2022-12-02T11:08:00.809Z,32.58
2022-12-02T11:10:37.705Z,34.78
2022-12-02T11:13:51.278Z,53.30
2022-12-02T11:17:06.272Z,29.77
2022-12-02T11:19:48.143Z,39.40
2022-12-02T11:23:06.502Z,30.90
2022-12-02T11:26:12.694Z,31.40
2022-12-02T11:29:18.008Z,35.40
2022-12-02T11:32:26.921Z,35.30
2022-12-02T11:35:17.529Z,34.08
2022-12-02T11:37:49.683Z,34.67
2022-12-02T11:41:02.123Z,27.15
2022-12-02T11:44:10.943Z,31.77
2022-12-02T11:46:56.107Z,20.55
2022-12-02T11:49:43.350Z,39.33
2022-12-02T11:52:47.172Z,34.08
2022-12-02T11:56:07.262Z,33.85
2022-12-02T11:58:48.917Z,24.38
2022-12-02T12:01:34.566Z,35.28
2022-12-02T12:04:39.792Z,38.03
2022-12-02T12:07:12.285Z,35.28
2022-12-02T12:10:01.624Z,36.78
2022-12-02T12:12:31.404Z,46.88
2022-12-02T12:15:08.054Z,39.03
2022-12-02T12:17:48.803Z,29.27
2022-12-02T12:20:56.997Z,27.83
2022-12-02T12:24:10.360Z,27.27
2022-12-02T13:21:39.908Z,34.17
2022-12-02T13:29:45.196Z,32.72
2022-12-02T14:02:11.066Z,27.73
2022-12-02T14:19:57.823Z,26.73
2022-12-02T14:23:40.178Z,50.65
2022-12-02T14:31:29.932Z,25.45
2022-12-02T14:35:11.380Z,29.08
2022-12-02T14:38:08.765Z,32.53
2022-12-02T14:40:43.126Z,31.55
2022-12-02T14:43:15.254Z,31.15
2022-12-02T14:45:44.774Z,24.85
2022-12-02T14:48:35.993Z,22.88
2022-12-02T14:51:50.266Z,46.88
2022-12-02T14:54:40.516Z,34.72
2022-12-02T14:57:18.281Z,32.38
2022-12-02T14:59:51.621Z,34.13
2022-12-02T15:02:20.599Z,33.75
2022-12-02T15:04:49.810Z,41.42
2022-12-02T15:07:18.891Z,29.10
2022-12-02T15:09:49.861Z,31.23
2022-12-02T15:12:21.163Z,25.52
2022-12-02T15:14:50.441Z,33.75
2022-12-02T15:17:19.559Z,33.67
2022-12-02T15:19:48.438Z,32.55
2022-12-02T15:22:17.263Z,28.23
2022-12-02T15:24:46.127Z,27.00
2022-12-02T15:27:14.917Z,36.03
2022-12-02T15:29:45.122Z,40.22
2022-12-02T15:32:18.925Z,42.25
2022-12-02T15:34:48.296Z,37.20
2022-12-02T15:37:17.166Z,29.88
2022-12-02T15:39:45.995Z,24.38
2022-12-02T15:42:14.812Z,39.00
2022-12-02T15:44:45.072Z,39.97
2022-12-02T15:47:14.054Z,42.47
2022-12-02T15:49:42.924Z,29.50
2022-12-02T15:52:31.835Z,33.28
2022-12-02T15:55:00.635Z,36.13
2022-12-02T15:57:29.544Z,45.70
2022-12-02T15:59:59.795Z,36.03
2022-12-02T16:02:28.625Z,31.48
2022-12-02T16:04:57.378Z,21.88
2022-12-02T16:07:26.349Z,23.38
2022-12-02T16:09:55.399Z,40.22
2022-12-02T16:12:24.317Z,20.40
2022-12-02T16:14:55.536Z,26.98
2022-12-02T16:17:26.028Z,27.65
2022-12-02T16:19:54.847Z,26.20
2022-12-02T16:22:23.735Z,41.20
2022-12-02T16:24:52.661Z,46.17
2022-12-02T16:27:21.697Z,36.22
2022-12-02T16:29:50.509Z,29.00
2022-12-02T16:32:20.829Z,26.50
2022-12-02T16:34:51.685Z,33.60
2022-12-02T16:37:22.866Z,36.05
2022-12-02T16:39:51.902Z,24.27
2022-12-02T16:42:20.746Z,53.38
2022-12-02T16:44:55.304Z,25.50
2022-12-02T16:47:24.732Z,25.48
2022-12-02T16:49:55.002Z,32.67
2022-12-02T16:52:23.869Z,25.08
2022-12-02T16:55:39.755Z,33.35
2022-12-02T16:58:08.618Z,26.80
2022-12-02T17:00:37.473Z,26.27
2022-12-02T17:03:06.429Z,27.20
2022-12-02T17:05:36.747Z,34.88
2022-12-02T17:08:05.888Z,33.60
2022-12-02T17:10:34.743Z,41.40
2022-12-02T17:13:03.571Z,35.33
2022-12-02T17:15:32.712Z,23.95
2022-12-02T17:18:01.596Z,26.42
2022-12-02T17:20:30.389Z,25.15
2022-12-02T17:23:00.731Z,30.38
2022-12-02T17:25:29.561Z,39.28
2022-12-02T17:27:58.492Z,36.42
2022-12-02T17:30:27.362Z,33.28
2022-12-02T17:32:57.189Z,31.40
2022-12-02T17:36:43.720Z,37.40
2022-12-02T17:39:16.472Z,49.42
2022-12-02T17:41:45.284Z,35.10
2022-12-02T17:44:16.786Z,37.33
2022-12-02T17:46:46.078Z,45.08
2022-12-02T17:49:14.880Z,36.10
2022-12-02T17:52:06.452Z,33.83
2022-12-02T17:54:34.406Z,30.15
2022-12-02T17:57:03.623Z,42.60
2022-12-02T17:59:32.518Z,35.88
2022-12-02T18:02:01.407Z,44.58
2022-12-02T18:04:30.417Z,27.92
2022-12-02T18:06:59.301Z,33.45
2022-12-02T18:09:28.106Z,43.28
2022-12-02T18:11:58.289Z,39.28
2022-12-02T18:14:27.040Z,47.38
2022-12-02T18:16:56.024Z,35.05
2022-12-02T18:19:24.824Z,27.00
2022-12-02T18:21:53.650Z,34.58
2022-12-02T18:24:22.490Z,37.17
2022-12-02T18:26:51.443Z,30.52
2022-12-02T18:29:21.679Z,40.88
2022-12-02T18:31:50.465Z,38.42
2022-12-02T18:34:19.306Z,29.55
2022-12-02T18:36:48.141Z,47.47
2022-12-02T18:39:19.739Z,35.38
2022-12-02T18:41:48.495Z,39.80
2022-12-02T18:44:17.331Z,40.33
2022-12-02T18:46:47.480Z,35.63
2022-12-02T18:49:16.392Z,31.70
2022-12-02T18:51:45.289Z,47.03
2022-12-02T18:54:14.128Z,40.58
2022-12-02T18:56:43.117Z,53.08
2022-12-02T18:59:12.003Z,49.95
2022-12-02T19:01:44.164Z,44.83
2022-12-02T19:04:14.657Z,44.25
2022-12-02T19:06:44.619Z,36.70
2022-12-02T19:09:13.795Z,40.83
2022-12-02T19:11:42.667Z,49.83
2022-12-02T19:14:11.650Z,36.03
2022-12-02T19:16:40.755Z,48.88
2022-12-02T19:19:09.642Z,45.78
2022-12-02T19:21:39.988Z,44.22
2022-12-02T19:24:09.783Z,47.25
2022-12-02T19:26:38.795Z,34.88
2022-12-02T19:29:07.569Z,37.38
2022-12-02T19:31:41.000Z,52.03
2022-12-02T19:34:13.221Z,28.60
2022-12-02T19:36:46.428Z,45.38
2022-12-02T19:39:15.434Z,58.45
2022-12-02T19:41:44.348Z,43.90
2022-12-02T19:44:13.114Z,37.10
2022-12-02T19:46:42.039Z,50.90
2022-12-02T19:49:10.986Z,51.55
2022-12-02T19:51:39.775Z,55.03
2022-12-02T19:54:10.014Z,40.00
2022-12-02T19:56:38.887Z,44.25
2022-12-02T19:59:08.109Z,42.38
2022-12-02T20:01:39.274Z,56.20
2022-12-02T20:04:33.254Z,39.45
2022-12-02T20:06:57.020Z,37.97
2022-12-02T20:09:27.365Z,54.53
2022-12-02T20:11:56.145Z,44.97
2022-12-02T20:14:24.969Z,41.20
2022-12-02T20:16:53.689Z,39.70
2022-12-02T20:19:22.482Z,53.78
2022-12-02T20:21:51.403Z,46.50
2022-12-02T20:24:20.252Z,54.78
2022-12-02T20:26:50.476Z,45.92
2022-12-02T20:29:19.376Z,36.65
2022-12-02T20:31:48.260Z,32.22
2022-12-02T20:34:17.194Z,42.20
2022-12-02T20:36:46.023Z,60.25
2022-12-02T20:39:14.927Z,38.08
2022-12-02T20:41:43.727Z,45.85
2022-12-02T20:44:13.972Z,47.25
2022-12-02T20:46:42.773Z,38.70
2022-12-02T20:49:11.546Z,38.85
2022-12-02T20:51:40.321Z,39.47
2022-12-02T20:54:09.151Z,45.53
2022-12-02T20:56:38.010Z,42.05
2022-12-02T20:59:07.038Z,50.03
2022-12-02T21:01:37.503Z,46.45
2022-12-02T21:04:06.813Z,54.63
2022-12-02T21:06:35.574Z,36.92
2022-12-02T21:09:04.721Z,38.85
2022-12-02T21:11:33.578Z,40.67
2022-12-02T21:14:02.415Z,45.90
2022-12-02T21:16:31.334Z,42.08
2022-12-02T21:19:01.965Z,45.15
2022-12-02T21:21:30.791Z,42.78
2022-12-02T21:24:03.573Z,44.30
2022-12-02T21:26:33.833Z,45.05
2022-12-02T21:29:02.817Z,41.53
2022-12-02T21:31:31.690Z,37.95
2022-12-02T21:34:02.081Z,49.85
2022-12-02T21:36:30.875Z,35.13
2022-12-02T21:38:59.867Z,42.70
2022-12-02T21:41:32.836Z,38.20
2022-12-02T21:44:01.655Z,50.72
2022-12-02T21:46:31.176Z,31.85
2022-12-02T21:49:01.887Z,43.63
2022-12-02T21:51:31.635Z,45.95
2022-12-02T21:54:00.587Z,41.00
2022-12-02T21:56:36.369Z,43.78
2022-12-02T21:59:19.603Z,48.60
2022-12-02T22:01:52.247Z,32.88
2022-12-02T22:04:41.494Z,33.47
2022-12-02T22:07:34.341Z,36.63
2022-12-02T22:10:17.016Z,44.33
2022-12-02T22:13:08.207Z,38.70
2022-12-02T22:16:20.197Z,39.72
2022-12-02T22:19:13.325Z,45.58
2022-12-02T22:22:21.224Z,48.97
2022-12-02T22:27:57.538Z,41.55
2022-12-02T22:30:55.959Z,31.85
2022-12-02T22:33:44.362Z,51.00
2022-12-02T22:36:47.876Z,37.33
2022-12-02T22:39:28.908Z,39.60
2022-12-02T22:42:20.714Z,36.97
2022-12-02T22:45:26.856Z,43.95
2022-12-02T22:48:31.878Z,30.05
2022-12-02T22:57:15.670Z,44.00
2022-12-02T23:00:04.486Z,41.53
2022-12-02T23:02:52.816Z,41.72
2022-12-02T23:06:00.966Z,41.38
2022-12-02T23:12:11.528Z,43.85
2022-12-02T23:15:36.487Z,47.40
2022-12-02T23:18:16.901Z,41.13
2022-12-02T23:21:23.659Z,35.97
2022-12-02T23:24:19.612Z,36.05
2022-12-02T23:30:28.992Z,39.60
2022-12-02T23:36:42.237Z,37.58
2022-12-02T23:42:37.967Z,38.30
2022-12-02T23:48:33.262Z,42.55
2022-12-02T23:51:49.737Z,35.97
2022-12-02T23:54:40.409Z,41.20
